createdAt,value
2018-08-18T00:05:52.557Z,2.16
2018-08-18T00:11:47.577Z,1.99
2018-08-18T00:17:42.547Z,2.3
2018-08-18T00:23:37.593Z,2.04
2018-08-18T00:29:32.573Z,2
2018-08-18T00:35:27.541Z,1.77
2018-08-18T00:41:22.543Z,2.04
2018-08-18T00:47:17.595Z,1.74
2018-08-18T00:53:12.570Z,2.04
2018-08-18T00:59:07.548Z,1.95
2018-08-18T01:05:02.572Z,1.93
2018-08-18T01:10:57.672Z,2.01
2018-08-18T01:16:52.572Z,1.98
2018-08-18T01:22:47.566Z,1.76
2018-08-18T01:28:42.669Z,1.96
2018-08-18T01:34:37.567Z,2.12
2018-08-18T01:40:32.608Z,1.96
2018-08-18T01:46:27.576Z,1.58
2018-08-18T01:52:22.578Z,1.83
2018-08-18T01:58:17.578Z,2.07
2018-08-18T02:04:12.633Z,2.29
2018-08-18T02:27:52.595Z,1.89
2018-08-18T02:27:52.678Z,2.13
2018-08-18T02:27:52.693Z,2.13
2018-08-18T02:27:52.746Z,2.13
2018-08-18T02:33:47.576Z,1.8
2018-08-18T02:39:42.582Z,1.86
2018-08-18T02:45:37.608Z,1.81
2018-08-18T02:51:32.609Z,2.29
2018-08-18T02:57:27.628Z,2
2018-08-18T03:03:22.633Z,2.03
2018-08-18T03:09:17.643Z,1.77
2018-08-18T03:15:12.612Z,1.75
2018-08-18T03:21:07.600Z,2.1
2018-08-18T03:27:02.627Z,1.92
2018-08-18T03:32:57.609Z,1.98
2018-08-18T03:38:52.617Z,2.05
2018-08-18T03:44:47.658Z,1.99
2018-08-18T03:50:42.621Z,2.03
2018-08-18T03:56:37.659Z,1.79
2018-08-18T04:02:32.618Z,2
2018-08-18T04:08:27.624Z,1.98
2018-08-18T04:14:22.634Z,2.53
2018-08-18T04:20:17.625Z,2.13
2018-08-18T04:26:12.629Z,2.38
2018-08-18T04:32:07.619Z,1.99
2018-08-18T04:38:02.626Z,2
2018-08-18T04:43:57.748Z,1.9
2018-08-18T04:49:52.654Z,1.89
2018-08-18T04:55:47.627Z,2.08
2018-08-18T05:01:42.645Z,2.51
2018-08-18T05:31:17.694Z,2.39
2018-08-18T05:31:17.768Z,2.68
2018-08-18T05:31:17.777Z,2.68
2018-08-18T05:31:17.787Z,2.68
2018-08-18T05:31:17.838Z,2.68
2018-08-18T05:37:12.671Z,2.65
2018-08-18T05:43:07.680Z,2.26
2018-08-18T05:49:02.651Z,2.32
2018-08-18T05:54:57.672Z,2.38
2018-08-18T06:00:52.646Z,2.47
2018-08-18T06:06:47.648Z,2.73
2018-08-18T06:12:42.645Z,2.49
2018-08-18T06:18:37.653Z,2.55
2018-08-18T06:24:32.653Z,2.93
2018-08-18T06:30:27.676Z,2.49
2018-08-18T06:36:22.672Z,2.79
2018-08-18T06:42:17.696Z,2.36
2018-08-18T06:48:12.685Z,3.01
2018-08-18T06:54:07.674Z,2.91
2018-08-18T07:00:02.682Z,2.77
2018-08-18T07:05:57.783Z,2.78
2018-08-18T07:11:52.699Z,3.12
2018-08-18T07:17:47.692Z,3.76
2018-08-18T07:23:42.684Z,3.31
2018-08-18T07:29:37.688Z,3.47
2018-08-18T07:35:32.718Z,3.13
2018-08-18T07:41:27.791Z,3.67
2018-08-18T07:47:22.713Z,3.42
2018-08-18T07:53:17.901Z,3.27
2018-08-18T07:59:12.680Z,2.88
2018-08-18T08:05:07.750Z,3.32
2018-08-18T08:28:47.786Z,3.1
2018-08-18T08:28:47.893Z,2.53
2018-08-18T08:28:47.964Z,2.53
2018-08-18T08:28:47.964Z,3.22
2018-08-18T08:34:42.746Z,2.58
2018-08-18T08:40:37.736Z,2.63
2018-08-18T08:46:32.750Z,2.8
2018-08-18T08:52:27.728Z,2.66
2018-08-18T08:58:22.696Z,2.65
2018-08-18T09:04:17.723Z,2.35
2018-08-18T09:10:12.758Z,2.45
2018-08-18T09:16:07.744Z,2.43
2018-08-18T09:22:02.741Z,2.27
2018-08-18T09:27:57.785Z,2.46
2018-08-18T09:33:52.731Z,2.68
2018-08-18T09:39:47.724Z,2.37
2018-08-18T09:45:42.729Z,2.72
2018-08-18T09:51:37.786Z,2.42
2018-08-18T09:57:32.744Z,2.27
2018-08-18T10:03:27.756Z,2.35
2018-08-18T10:09:22.743Z,2.13
2018-08-18T10:15:17.847Z,1.92
2018-08-18T10:21:12.749Z,2
2018-08-18T10:27:07.858Z,2
2018-08-18T10:33:02.779Z,1.93
2018-08-18T10:38:57.739Z,1.93
2018-08-18T10:44:52.785Z,2.13
2018-08-18T10:50:47.756Z,1.79
2018-08-18T10:56:42.764Z,1.93
2018-08-18T11:02:37.777Z,2.08
2018-08-18T11:32:12.801Z,1.51
2018-08-18T11:32:12.823Z,1.62
2018-08-18T11:32:12.845Z,1.62
2018-08-18T11:32:12.870Z,1.62
2018-08-18T11:32:12.889Z,1.62
2018-08-18T11:38:07.772Z,1.71
2018-08-18T11:44:02.778Z,1.93
2018-08-18T11:49:57.871Z,1.71
2018-08-18T11:55:52.800Z,1.96
2018-08-18T12:01:47.813Z,2.13
2018-08-18T12:07:42.799Z,1.91
2018-08-18T12:13:37.800Z,1.97
2018-08-18T12:19:32.848Z,1.81
2018-08-18T12:25:27.821Z,1.68
2018-08-18T12:31:22.809Z,1.23
2018-08-18T12:37:17.799Z,1.4
2018-08-18T12:43:12.806Z,1.61
2018-08-18T12:49:07.855Z,2.15
2018-08-18T12:55:02.826Z,1.8
2018-08-18T13:00:57.809Z,1.81
2018-08-18T13:06:52.808Z,1.9
2018-08-18T13:12:47.850Z,1.81
2018-08-18T13:18:42.833Z,2.04
2018-08-18T13:24:37.841Z,2.26
2018-08-18T13:30:32.828Z,2.39
2018-08-18T13:36:27.834Z,1.91
2018-08-18T13:42:22.840Z,2.72
2018-08-18T13:48:17.859Z,2.82
2018-08-18T13:54:12.824Z,2.26
2018-08-18T14:00:07.864Z,2.68
2018-08-18T14:06:02.870Z,2.63
2018-08-18T14:29:42.865Z,3.42
2018-08-18T14:29:42.918Z,3.14
2018-08-18T14:29:42.925Z,3.14
2018-08-18T14:29:42.959Z,3.14
2018-08-18T14:35:37.853Z,3.32
2018-08-18T14:41:32.886Z,3.53
2018-08-18T14:47:27.912Z,3.04
2018-08-18T14:53:22.896Z,3.22
2018-08-18T14:59:17.874Z,3.8
2018-08-18T15:05:12.851Z,3.64
2018-08-18T15:11:07.900Z,3.51
2018-08-18T15:17:02.967Z,3.94
2018-08-18T15:22:57.916Z,4.09
2018-08-18T15:28:52.870Z,3.87
2018-08-18T15:34:47.925Z,3.96
2018-08-18T15:40:42.895Z,4.07
2018-08-18T15:46:37.911Z,3.83
2018-08-18T15:52:32.885Z,3.73
2018-08-18T15:58:27.929Z,4.43
2018-08-18T16:04:22.937Z,4.75
2018-08-18T16:10:17.948Z,4.34
2018-08-18T16:16:12.907Z,4.62
2018-08-18T16:22:07.936Z,4.9
2018-08-18T16:28:02.893Z,4.63
2018-08-18T16:33:57.917Z,4.89
2018-08-18T16:39:52.920Z,5.03
2018-08-18T16:45:47.928Z,4.47
2018-08-18T16:51:42.926Z,5.11
2018-08-18T16:57:37.926Z,4.69
2018-08-18T17:03:32.951Z,4.76
2018-08-18T17:33:07.983Z,4.74
2018-08-18T17:33:07.989Z,4.86
2018-08-18T17:33:08.001Z,4.58
2018-08-18T17:33:08.023Z,4.58
2018-08-18T17:39:02.948Z,4.45
2018-08-18T17:44:57.936Z,4.61
2018-08-18T17:50:52.958Z,4.56
2018-08-18T17:56:47.990Z,4.38
2018-08-18T18:02:42.936Z,4.85
2018-08-18T18:08:38.035Z,3.86
2018-08-18T18:14:32.965Z,4.05
2018-08-18T18:20:27.947Z,4.46
2018-08-18T18:26:22.956Z,4.51
2018-08-18T18:32:17.957Z,4.05
2018-08-18T18:38:12.967Z,4.41
2018-08-18T18:44:07.981Z,4.02
2018-08-18T18:50:02.962Z,4.27
2018-08-18T18:55:57.985Z,4.19
2018-08-18T19:01:53.012Z,4.48
2018-08-18T19:07:47.976Z,4.47
2018-08-18T19:13:42.981Z,4.49
2018-08-18T19:19:38.023Z,4.41
2018-08-18T19:25:32.974Z,4
2018-08-18T19:31:28.015Z,3.76
2018-08-18T19:37:23.000Z,3.93
2018-08-18T19:43:18.007Z,4.12
2018-08-18T19:49:13.091Z,3.93
2018-08-18T19:55:08.035Z,3.82
2018-08-18T20:01:03.031Z,4.31
2018-08-18T20:06:58.000Z,4.36
2018-08-18T20:30:38.013Z,3.78
2018-08-18T20:30:38.146Z,4.28
2018-08-18T20:30:38.156Z,4.28
2018-08-18T20:30:38.167Z,4.28
2018-08-18T20:36:33.011Z,3.73
2018-08-18T20:42:28.000Z,4.44
2018-08-18T20:48:23.145Z,4.52
2018-08-18T20:54:18.048Z,3.92
2018-08-18T21:00:13.147Z,3.86
2018-08-18T21:06:08.047Z,4.56
2018-08-18T21:12:03.066Z,3.96
2018-08-18T21:17:58.042Z,3.92
2018-08-18T21:23:53.028Z,4.29
2018-08-18T21:29:48.028Z,3.99
2018-08-18T21:35:43.057Z,3.72
2018-08-18T21:41:38.105Z,3.58
2018-08-18T21:47:33.065Z,4.53
2018-08-18T21:53:28.067Z,4.37
2018-08-18T21:59:23.109Z,4.32
2018-08-18T22:05:18.025Z,4.46
2018-08-18T22:11:13.070Z,3.99
2018-08-18T22:17:08.041Z,4.33
2018-08-18T22:23:03.114Z,4.02
2018-08-18T22:28:58.076Z,4.07
2018-08-18T22:34:53.056Z,3.98
2018-08-18T22:40:48.089Z,4.59
2018-08-18T22:46:43.118Z,3.91
2018-08-18T22:52:38.067Z,4.1
2018-08-18T22:58:33.093Z,4.47
2018-08-18T23:04:28.140Z,4.16
2018-08-18T23:34:03.119Z,4.12
2018-08-18T23:34:03.132Z,3.98
2018-08-18T23:34:03.151Z,3.98
2018-08-18T23:34:03.174Z,3.98
2018-08-18T23:39:58.073Z,4.39
2018-08-18T23:45:53.076Z,4.3
2018-08-18T23:51:48.101Z,4.69
2018-08-18T23:57:43.155Z,4.07
